createdAt,value
2018-02-07T00:00:16.020Z,1014.1
2018-02-07T00:05:16.146Z,1013.9
2018-02-07T00:10:15.985Z,1013.9
2018-02-07T00:15:16.033Z,1013.9
2018-02-07T00:20:15.880Z,1013.7
2018-02-07T00:25:16.020Z,1013.6
2018-02-07T00:30:16.007Z,1013.8
2018-02-07T00:35:16.049Z,1013.8
2018-02-07T00:40:16.088Z,1013.7
2018-02-07T00:45:16.019Z,1013.7
2018-02-07T00:50:15.876Z,1013.7
2018-02-07T00:55:16.091Z,1013.7
2018-02-07T01:00:16.051Z,1013.7
2018-02-07T01:05:15.898Z,1013.7
2018-02-07T01:10:16.102Z,1013.7
2018-02-07T01:15:15.907Z,1013.6
2018-02-07T01:20:15.910Z,1013.6
2018-02-07T01:25:16.113Z,1013.5
2018-02-07T01:30:16.127Z,1013.5
2018-02-07T01:35:16.046Z,1013.5
2018-02-07T01:40:16.085Z,1013.5
2018-02-07T01:45:15.925Z,1013.4
2018-02-07T01:50:15.939Z,1013.4
2018-02-07T01:55:16.062Z,1013.4
2018-02-07T02:00:15.922Z,1013.4
2018-02-07T02:05:16.150Z,1013.3
2018-02-07T02:10:16.051Z,1013.3
2018-02-07T02:15:16.120Z,1013.2
2018-02-07T02:20:15.930Z,1013.1
2018-02-07T02:25:16.072Z,1013.2
2018-02-07T02:30:16.151Z,1013.1
2018-02-07T02:35:16.156Z,1013.1
2018-02-07T02:40:16.082Z,1013.1
2018-02-07T02:45:16.125Z,1013.1
2018-02-07T02:50:16.154Z,1013.1
2018-02-07T02:55:15.968Z,1013
2018-02-07T03:00:18.665Z,1013
2018-02-07T03:05:23.750Z,1013
2018-02-07T03:10:18.621Z,1013
2018-02-07T03:15:18.869Z,1012.9
2018-02-07T03:20:18.656Z,1012.8
2018-02-07T03:25:18.843Z,1012.8
2018-02-07T03:30:21.896Z,1012.9
2018-02-07T03:35:18.804Z,1012.8
2018-02-07T03:40:18.857Z,1012.9
2018-02-07T03:45:18.882Z,1012.9
2018-02-07T03:50:18.803Z,1012.8
2018-02-07T03:55:18.682Z,1012.9
2018-02-07T04:00:18.666Z,1012.8
2018-02-07T04:05:18.921Z,1012.8
2018-02-07T04:10:18.966Z,1012.9
2018-02-07T04:15:18.870Z,1012.7
2018-02-07T04:20:18.876Z,1012.6
2018-02-07T04:25:18.990Z,1012.5
2018-02-07T04:30:19.109Z,1012.5
2018-02-07T04:35:18.873Z,1012.5
2018-02-07T04:40:18.867Z,1012.4
2018-02-07T04:45:18.880Z,1012.3
2018-02-07T04:50:18.866Z,1012.1
2018-02-07T04:55:18.897Z,1012.2
2018-02-07T05:00:18.901Z,1012.2
2018-02-07T05:05:18.897Z,1012.1
2018-02-07T05:10:20.440Z,1012.2
2018-02-07T05:15:18.910Z,1012.2
2018-02-07T05:20:18.918Z,1012.2
2018-02-07T05:25:19.234Z,1012.3
2018-02-07T05:30:19.017Z,1012.3
2018-02-07T05:35:18.871Z,1012.3
2018-02-07T05:40:18.954Z,1012.3
2018-02-07T05:45:18.913Z,1012.2
2018-02-07T05:50:19.045Z,1012.3
2018-02-07T05:55:18.920Z,1012.4
2018-02-07T06:00:18.930Z,1012.4
2018-02-07T06:05:19.029Z,1012.4
2018-02-07T06:10:18.932Z,1012.5
2018-02-07T06:15:19.039Z,1012.5
2018-02-07T06:20:18.931Z,1012.6
2018-02-07T06:25:19.045Z,1012.5
2018-02-07T06:30:18.923Z,1012.6
2018-02-07T06:35:18.948Z,1012.7
2018-02-07T06:40:19.110Z,1012.8
2018-02-07T06:45:19.177Z,1012.6
2018-02-07T06:50:19.109Z,1012.8
2018-02-07T06:55:18.940Z,1012.8
2018-02-07T07:00:19.233Z,1012.8
2018-02-07T07:05:19.097Z,1012.9
2018-02-07T07:10:19.068Z,1012.9
2018-02-07T07:15:19.168Z,1013
2018-02-07T07:20:19.066Z,1013
2018-02-07T07:25:19.214Z,1013
2018-02-07T07:30:19.189Z,1013
2018-02-07T07:35:19.306Z,1013.1
2018-02-07T07:40:19.141Z,1013.1
2018-02-07T07:45:18.975Z,1013.1
2018-02-07T07:50:21.768Z,1013.1
2018-02-07T07:55:26.858Z,1013.1
2018-02-07T08:00:21.985Z,1013
2018-02-07T08:05:21.786Z,1013
2018-02-07T08:10:22.007Z,1013.1
2018-02-07T08:15:21.914Z,1013.1
2018-02-07T08:20:22.016Z,1013.2
2018-02-07T08:25:21.869Z,1013.1
2018-02-07T08:30:21.924Z,1013.1
2018-02-07T08:35:21.951Z,1013.1
2018-02-07T08:40:21.992Z,1013.1
2018-02-07T08:45:21.914Z,1013.2
2018-02-07T08:50:21.945Z,1013.2
2018-02-07T08:55:21.808Z,1013.1
2018-02-07T09:00:21.789Z,1013.1
2018-02-07T09:05:21.973Z,1013.1
2018-02-07T09:10:21.993Z,1013.1
2018-02-07T09:15:21.877Z,1013.1
2018-02-07T09:20:22.073Z,1013.1
2018-02-07T09:25:22.173Z,1013.1
2018-02-07T09:30:22.150Z,1013.1
2018-02-07T09:35:22.135Z,1012.9
2018-02-07T09:40:22.085Z,1012.9
2018-02-07T09:45:22.122Z,1012.9
2018-02-07T09:50:22.067Z,1012.9
2018-02-07T09:55:22.080Z,1013
2018-02-07T10:00:22.125Z,1013
2018-02-07T10:05:22.073Z,1013.1
2018-02-07T10:10:22.083Z,1013
2018-02-07T10:15:22.160Z,1013.1
2018-02-07T10:20:22.148Z,1013.2
2018-02-07T10:25:22.089Z,1013.1
2018-02-07T10:30:22.135Z,1013.1
2018-02-07T10:35:22.147Z,1013.1
2018-02-07T10:40:22.174Z,1013.1
2018-02-07T10:45:22.153Z,1013
2018-02-07T10:50:22.196Z,1013
2018-02-07T10:55:23.103Z,1013.1
2018-02-07T11:00:22.138Z,1013
2018-02-07T11:05:22.218Z,1013
2018-02-07T11:10:22.071Z,1013
2018-02-07T11:15:22.106Z,1013
2018-02-07T11:20:22.189Z,1013.1
2018-02-07T11:25:22.242Z,1013.2
2018-02-07T11:30:22.114Z,1013.2
2018-02-07T11:35:22.180Z,1013.1
2018-02-07T11:40:21.980Z,1013.1
2018-02-07T11:45:22.105Z,1013.1
2018-02-07T11:50:22.157Z,1013.2
2018-02-07T11:55:22.015Z,1013.1
2018-02-07T12:00:22.236Z,1013.1
2018-02-07T12:05:22.150Z,1013
2018-02-07T12:10:21.944Z,1012.9
2018-02-07T12:15:22.064Z,1013
2018-02-07T12:20:22.138Z,1013.1
2018-02-07T12:25:22.203Z,1013.1
2018-02-07T12:30:22.214Z,1013.2
2018-02-07T12:35:22.114Z,1013.3
2018-02-07T12:40:25.392Z,1013.2
2018-02-07T12:45:30.391Z,1013.3
2018-02-07T12:50:25.346Z,1013.2
2018-02-07T12:55:25.358Z,1013.3
2018-02-07T13:00:25.274Z,1013.3
2018-02-07T13:05:25.331Z,1013.3
2018-02-07T13:10:25.347Z,1013.4
2018-02-07T13:15:25.156Z,1013.5
2018-02-07T13:20:25.298Z,1013.3
2018-02-07T13:25:25.376Z,1013.3
2018-02-07T13:30:25.271Z,1013.3
2018-02-07T13:35:25.154Z,1013.3
2018-02-07T13:40:25.375Z,1013.4
2018-02-07T13:45:25.165Z,1013.3
2018-02-07T13:50:25.161Z,1013.4
2018-02-07T13:55:25.289Z,1013.5
2018-02-07T14:00:25.280Z,1013.6
2018-02-07T14:05:25.471Z,1013.6
2018-02-07T14:10:25.361Z,1013.5
2018-02-07T14:15:25.222Z,1013.6
2018-02-07T14:20:25.435Z,1013.6
2018-02-07T14:25:25.337Z,1013.6
2018-02-07T14:30:25.376Z,1013.7
2018-02-07T14:35:25.403Z,1013.7
2018-02-07T14:40:25.434Z,1013.7
2018-02-07T14:45:25.383Z,1013.8
2018-02-07T14:50:25.456Z,1014
2018-02-07T14:55:25.437Z,1014
2018-02-07T15:00:25.337Z,1013.9
2018-02-07T15:05:25.424Z,1013.9
2018-02-07T15:10:25.446Z,1014
2018-02-07T15:15:25.361Z,1014.1
2018-02-07T15:20:25.402Z,1014.1
2018-02-07T15:25:25.462Z,1014.2
2018-02-07T15:30:25.374Z,1014.4
2018-02-07T15:35:25.256Z,1014.4
2018-02-07T15:40:25.257Z,1014.3
2018-02-07T15:45:25.269Z,1014.3
2018-02-07T15:50:25.265Z,1014.4
2018-02-07T15:55:25.704Z,1014.5
2018-02-07T16:00:25.282Z,1014.4
2018-02-07T16:05:25.277Z,1014.4
2018-02-07T16:10:25.282Z,1014.4
2018-02-07T16:15:25.267Z,1014.5
2018-02-07T16:20:25.372Z,1014.6
2018-02-07T16:25:25.333Z,1014.5
2018-02-07T16:30:26.014Z,1014.6
2018-02-07T16:35:25.325Z,1014.6
2018-02-07T16:40:25.370Z,1014.7
2018-02-07T16:45:26.346Z,1014.7
2018-02-07T16:50:25.297Z,1014.7
2018-02-07T16:55:25.261Z,1014.7
2018-02-07T17:00:25.480Z,1014.7
2018-02-07T17:05:25.523Z,1014.7
2018-02-07T17:10:25.422Z,1014.8
2018-02-07T17:15:25.334Z,1015.1
2018-02-07T17:20:25.306Z,1015.1
2018-02-07T17:25:25.378Z,1015.3
2018-02-07T17:30:26.963Z,1015.4
2018-02-07T17:35:32.178Z,1015.4
2018-02-07T17:40:27.119Z,1015.4
2018-02-07T17:45:26.992Z,1015.4
2018-02-07T17:50:27.144Z,1015.5
2018-02-07T17:55:26.995Z,1015.5
2018-02-07T18:00:26.944Z,1015.5
2018-02-07T18:05:27.007Z,1015.6
2018-02-07T18:10:27.112Z,1015.7
2018-02-07T18:15:26.999Z,1015.6
2018-02-07T18:20:27.052Z,1015.7
2018-02-07T18:25:28.232Z,1015.8
2018-02-07T18:30:27.178Z,1015.8
2018-02-07T18:35:27.251Z,1015.8
2018-02-07T18:40:26.963Z,1015.9
2018-02-07T18:45:27.037Z,1015.9
2018-02-07T18:50:27.662Z,1015.9
2018-02-07T18:55:27.067Z,1015.9
2018-02-07T19:00:28.661Z,1016
2018-02-07T19:05:27.038Z,1015.9
2018-02-07T19:10:27.039Z,1016.1
2018-02-07T19:15:27.046Z,1016.2
2018-02-07T19:20:27.001Z,1016.3
2018-02-07T19:25:27.058Z,1016.3
2018-02-07T19:30:27.057Z,1016.2
2018-02-07T19:35:27.050Z,1016.2
2018-02-07T19:40:27.285Z,1016.3
2018-02-07T19:45:27.168Z,1016.3
2018-02-07T19:50:27.043Z,1016.4
2018-02-07T19:55:27.975Z,1016.5
2018-02-07T20:00:27.062Z,1016.5
2018-02-07T20:05:27.404Z,1016.6
2018-02-07T20:10:27.072Z,1016.7
2018-02-07T20:15:27.078Z,1016.8
2018-02-07T20:20:27.105Z,1016.8
2018-02-07T20:25:27.633Z,1016.9
2018-02-07T20:30:27.075Z,1016.9
2018-02-07T20:35:27.457Z,1016.9
2018-02-07T20:40:27.629Z,1016.9
2018-02-07T20:45:27.514Z,1017
2018-02-07T20:50:27.859Z,1017
2018-02-07T20:55:27.749Z,1016.9
2018-02-07T21:00:28.016Z,1017
2018-02-07T21:05:27.966Z,1016.9
2018-02-07T21:10:27.996Z,1017.1
2018-02-07T21:15:28.165Z,1017.1
2018-02-07T21:20:28.149Z,1017.1
2018-02-07T21:25:27.983Z,1017
2018-02-07T21:30:27.991Z,1017.1
2018-02-07T21:35:28.155Z,1017.1
2018-02-07T21:40:27.986Z,1017.2
2018-02-07T21:45:28.038Z,1017.1
2018-02-07T21:50:28.110Z,1017.2
2018-02-07T21:55:28.395Z,1017.1
2018-02-07T22:00:28.185Z,1017.2
2018-02-07T22:05:28.241Z,1017.2
2018-02-07T22:10:28.213Z,1017.1
2018-02-07T22:15:28.237Z,1017.2
2018-02-07T22:20:30.844Z,1017.1
2018-02-07T22:25:36.203Z,1017.2
2018-02-07T22:30:30.960Z,1017.1
2018-02-07T22:35:31.019Z,1017.1
2018-02-07T22:40:30.859Z,1017.1
2018-02-07T22:45:31.110Z,1017.1
2018-02-07T22:50:30.823Z,1017.2
2018-02-07T22:55:31.078Z,1017.1
2018-02-07T23:00:30.956Z,1017.1
2018-02-07T23:05:31.017Z,1017.1
2018-02-07T23:10:31.003Z,1017.2
2018-02-07T23:15:30.872Z,1017.2
2018-02-07T23:20:30.890Z,1017.2
2018-02-07T23:25:31.192Z,1017.3
2018-02-07T23:30:31.183Z,1017.4
2018-02-07T23:35:31.193Z,1017.3
2018-02-07T23:40:31.303Z,1017.3
2018-02-07T23:45:31.219Z,1017.4
2018-02-07T23:50:31.230Z,1017.4
2018-02-07T23:55:31.311Z,1017.4
